Oakville, Michigan
Current Conditions -  °F | °C
As of 12:53 PM on Sunday 25 Jan 2015 (Local Time) from KARB Reporting Station
Overcast Overcast  
Wind Chill: 14°   Ceiling: 2200
Heat Index: 25°   Visibility: 10mi
Dew Point: 16°   Wind: 13mph
Humidity: 69%   Direction: 50°NE
Pressure: 29.88"   Gusts: NA
Location:  42.0828°N, 83.683°W
Report Text: KARB 251753Z 05011KT 10SM BKN022 OVC041 M04/M09 A2988 RMK AO2 SLP126 T10391089 11006 21044 50006
Loading
Personal Weather Stations






























Interactive Weather Map New forecast layout! Learn more

10-Day Weather Forecast

Advertisements
Track Severe Weather on mobile